ENEV/EVE METAR and TAF weather

Enter ICAO airport designator
Station Type Date Time Source
ENEV METAR 2024/04/15 08:50 UTC NOAA

ENEV 150850Z 01010KT 9999 -SHSN FEW027 BKN068 02/M02 Q1006 NOSIG RMK WIND 1400FT 36010KT


Station Type Date Time Source
ENEV Decoded METAR 2024/04/15 08:50 UTC NOAA

Evenes, Norway (ENEV) 68-31N 016-41E 26M
Apr 15, 2024 - 04:50 AM EDT / 2024.04.15 0850 UTC
Wind: from the N (010 degrees) at 12 MPH (10 KT):0
Visibility: greater than 7 mile(s):0
Sky conditions: mostly cloudy
Weather: light snow showers
Temperature: 35 F (2 C)
Windchill: 26 F (-3 C):1
Dew Point: 28 F (-2 C)
Relative Humidity: 74%
Pressure (altimeter): 29.71 in. Hg (1006 hPa)
ob: ENEV 150850Z 01010KT 9999 -SHSN FEW027 BKN068 02/M02 Q1006 NOSIG RMK WIND 1400FT 36010KT
cycle: 9

Station Type Date Time Source
ENEV TAF 2024/04/15 06:36 UTC NOAA